createdAt,value
2022-11-15T00:00:24.146Z,63.33
2022-11-15T00:01:24.144Z,62.68
2022-11-15T00:02:24.177Z,64.61
2022-11-15T00:03:24.109Z,65.90
2022-11-15T00:04:24.095Z,64.78
2022-11-15T00:05:24.088Z,64.13
2022-11-15T00:06:24.094Z,63.49
2022-11-15T00:07:53.390Z,62.84
2022-11-15T00:08:26.057Z,61.39
2022-11-15T00:09:24.047Z,64.94
2022-11-15T00:10:24.036Z,62.04
2022-11-15T00:11:24.082Z,63.33
2022-11-15T00:12:24.015Z,64.94
2022-11-15T00:13:24.006Z,62.36
2022-11-15T00:14:23.995Z,61.71
2022-11-15T00:15:23.984Z,63.49
2022-11-15T00:16:24.021Z,62.84
2022-11-15T00:17:24.018Z,63.65
2022-11-15T00:18:23.977Z,63.49
2022-11-15T00:19:23.950Z,59.78
2022-11-15T00:20:23.940Z,61.39
2022-11-15T00:21:23.967Z,63.81
2022-11-15T00:22:23.917Z,62.84
2022-11-15T00:23:23.904Z,64.78
2022-11-15T00:24:23.894Z,64.78
2022-11-15T00:25:23.881Z,62.84
2022-11-15T00:26:23.882Z,64.45
2022-11-15T00:27:23.858Z,65.90
2022-11-15T00:28:23.847Z,64.29
2022-11-15T00:29:23.833Z,63.33
2022-11-15T00:30:23.826Z,69.61
2022-11-15T00:31:23.825Z,63.33
2022-11-15T00:32:23.809Z,65.74
2022-11-15T00:33:23.795Z,63.16
2022-11-15T00:34:23.783Z,62.36
2022-11-15T00:35:23.791Z,63.00
2022-11-15T00:36:23.774Z,62.36
2022-11-15T00:37:23.757Z,63.00
2022-11-15T00:38:23.741Z,62.20
2022-11-15T00:39:23.731Z,63.16
2022-11-15T00:40:23.724Z,62.84
2022-11-15T00:41:23.729Z,63.49
2022-11-15T00:42:23.701Z,64.29
2022-11-15T00:43:23.689Z,63.00
2022-11-15T00:44:23.675Z,64.94
2022-11-15T00:45:23.681Z,58.33
2022-11-15T00:46:23.668Z,64.45
2022-11-15T00:47:23.644Z,62.52
2022-11-15T00:48:23.637Z,66.87
2022-11-15T00:49:23.629Z,64.78
2022-11-15T00:50:23.617Z,66.39
2022-11-15T00:51:23.615Z,63.81
2022-11-15T00:52:23.592Z,63.00
2022-11-15T00:53:23.581Z,63.16
2022-11-15T00:54:23.569Z,66.87
2022-11-15T00:55:23.560Z,63.33
2022-11-15T00:56:23.557Z,66.87
2022-11-15T00:57:23.540Z,65.90
2022-11-15T00:58:23.527Z,63.49
2022-11-15T00:59:23.515Z,62.52
2022-11-15T01:00:23.507Z,63.16
2022-11-15T01:01:23.588Z,63.65
2022-11-15T01:02:23.489Z,65.90
2022-11-15T01:03:23.478Z,65.10
2022-11-15T01:04:23.465Z,62.68
2022-11-15T01:05:23.463Z,67.19
2022-11-15T01:06:23.465Z,65.74
2022-11-15T01:07:23.452Z,62.52
2022-11-15T01:08:23.423Z,67.03
2022-11-15T01:09:23.411Z,63.97
2022-11-15T01:10:23.397Z,67.35
2022-11-15T01:11:23.402Z,63.00
2022-11-15T01:12:23.392Z,65.42
2022-11-15T01:13:23.371Z,67.03
2022-11-15T01:14:25.589Z,64.94
2022-11-15T01:15:24.372Z,60.10
2022-11-15T01:16:23.356Z,63.81
2022-11-15T01:17:23.335Z,61.71
2022-11-15T01:18:23.327Z,63.00
2022-11-15T01:19:23.315Z,68.96
2022-11-15T01:20:23.298Z,62.52
2022-11-15T01:21:23.302Z,65.58
2022-11-15T01:22:23.294Z,64.78
2022-11-15T01:23:23.275Z,62.84
2022-11-15T01:24:23.261Z,66.06
2022-11-15T01:25:23.251Z,66.06
2022-11-15T01:26:23.250Z,64.78
2022-11-15T01:27:23.226Z,66.39
2022-11-15T01:28:23.217Z,67.03
2022-11-15T01:29:23.207Z,65.42
2022-11-15T01:30:23.200Z,64.61
2022-11-15T01:31:23.202Z,66.06
2022-11-15T01:32:23.176Z,66.23
2022-11-15T01:33:23.158Z,62.36
2022-11-15T01:34:23.150Z,65.74
2022-11-15T01:35:23.139Z,66.39
2022-11-15T01:36:23.176Z,68.96
2022-11-15T01:37:23.119Z,66.39
2022-11-15T01:38:23.113Z,65.10
2022-11-15T01:39:23.101Z,66.71
2022-11-15T01:40:23.088Z,64.61
2022-11-15T01:41:23.086Z,65.74
2022-11-15T01:42:23.072Z,68.96
2022-11-15T01:43:23.055Z,66.55
2022-11-15T01:44:23.044Z,66.87
2022-11-15T01:45:23.037Z,65.26
2022-11-15T01:46:23.036Z,64.61
2022-11-15T01:47:23.026Z,66.87
2022-11-15T01:48:23.004Z,66.39
2022-11-15T01:49:22.994Z,63.49
2022-11-15T01:50:22.987Z,67.84
2022-11-15T01:51:22.982Z,66.87
2022-11-15T01:52:22.961Z,62.68
2022-11-15T01:53:22.950Z,66.39
2022-11-15T01:54:22.936Z,67.19
2022-11-15T01:55:22.930Z,63.49
2022-11-15T01:56:22.934Z,64.61
2022-11-15T01:57:22.913Z,66.71
2022-11-15T01:58:22.894Z,69.45
2022-11-15T01:59:22.887Z,68.32
2022-11-15T02:00:22.878Z,67.35
2022-11-15T02:01:22.924Z,66.39
2022-11-15T02:02:22.853Z,67.03
2022-11-15T02:03:22.860Z,67.68
2022-11-15T02:04:22.823Z,67.51
2022-11-15T02:05:23.821Z,71.54
2022-11-15T02:06:22.829Z,66.87
2022-11-15T02:07:22.836Z,66.39
2022-11-15T02:08:22.796Z,71.70
2022-11-15T02:09:22.785Z,66.39
2022-11-15T02:10:22.777Z,65.58
2022-11-15T02:11:22.765Z,71.54
2022-11-15T02:12:22.763Z,67.68
2022-11-15T02:13:22.747Z,66.06
2022-11-15T02:14:22.742Z,69.61
2022-11-15T02:15:22.730Z,68.16
2022-11-15T02:16:22.717Z,70.09
2022-11-15T02:17:22.748Z,69.61
2022-11-15T02:18:22.697Z,68.64
2022-11-15T02:19:22.683Z,64.61
2022-11-15T02:20:22.678Z,68.64
2022-11-15T02:21:22.666Z,70.42
2022-11-15T02:22:22.692Z,68.64
2022-11-15T02:23:22.642Z,71.54
2022-11-15T02:24:22.631Z,68.32
2022-11-15T02:25:22.620Z,73.80
2022-11-15T02:26:22.612Z,65.90
2022-11-15T02:27:22.608Z,67.03
2022-11-15T02:28:22.591Z,69.77
2022-11-15T02:29:22.573Z,67.84
2022-11-15T02:30:22.566Z,70.42
2022-11-15T02:31:22.557Z,70.09
2022-11-15T02:32:22.568Z,70.58
2022-11-15T02:33:22.540Z,70.74
2022-11-15T02:34:22.522Z,69.77
2022-11-15T02:35:23.538Z,70.58
2022-11-15T02:36:22.511Z,65.58
2022-11-15T02:37:22.509Z,69.45
2022-11-15T02:38:22.491Z,70.42
2022-11-15T02:39:22.477Z,68.80
2022-11-15T02:40:22.469Z,69.77
2022-11-15T02:41:22.457Z,71.38
2022-11-15T02:42:22.462Z,69.77
2022-11-15T02:43:22.445Z,70.09
2022-11-15T02:44:22.428Z,68.48
2022-11-15T02:45:22.417Z,69.45
2022-11-15T02:46:22.427Z,70.25
2022-11-15T02:47:22.399Z,70.25
2022-11-15T02:48:22.388Z,69.77
2022-11-15T02:49:22.378Z,70.58
2022-11-15T02:50:22.368Z,69.13
2022-11-15T02:51:22.367Z,70.25
2022-11-15T02:52:22.354Z,69.29
2022-11-15T02:53:22.340Z,69.61
2022-11-15T02:54:22.324Z,64.13
2022-11-15T02:55:22.320Z,72.67
2022-11-15T02:56:22.316Z,69.29
2022-11-15T02:57:22.298Z,71.54
2022-11-15T02:58:22.287Z,71.70
2022-11-15T02:59:22.275Z,70.58
2022-11-15T03:00:22.266Z,70.42
2022-11-15T03:01:22.314Z,69.29
2022-11-15T03:02:22.242Z,70.74
2022-11-15T03:03:22.240Z,70.74
2022-11-15T03:04:22.221Z,68.80
2022-11-15T03:05:22.214Z,70.25
2022-11-15T03:06:22.221Z,70.25
2022-11-15T03:07:22.245Z,71.38
2022-11-15T03:08:22.179Z,69.45
2022-11-15T03:09:22.168Z,71.87
2022-11-15T03:10:22.151Z,72.35
2022-11-15T03:11:23.156Z,66.06
2022-11-15T03:12:22.135Z,69.61
2022-11-15T03:13:22.126Z,72.03
2022-11-15T03:14:22.115Z,72.67
2022-11-15T03:15:22.102Z,73.80
2022-11-15T03:16:22.107Z,71.06
2022-11-15T03:17:22.083Z,68.96
2022-11-15T03:18:22.073Z,70.25
2022-11-15T03:19:22.062Z,72.35
2022-11-15T03:20:22.050Z,69.61
2022-11-15T03:21:22.058Z,71.87
2022-11-15T03:22:22.034Z,71.22
2022-11-15T03:23:22.032Z,70.42
2022-11-15T03:24:25.862Z,74.12
2022-11-15T03:25:23.001Z,73.96
2022-11-15T03:26:21.994Z,72.51
2022-11-15T03:27:21.992Z,73.96
2022-11-15T03:28:21.971Z,73.64
2022-11-15T03:29:21.963Z,73.64
2022-11-15T03:30:21.983Z,71.70
2022-11-15T03:31:21.939Z,70.58
2022-11-15T03:32:21.951Z,71.06
2022-11-15T03:33:21.919Z,72.67
2022-11-15T03:34:21.912Z,70.74
2022-11-15T03:35:21.904Z,73.15
2022-11-15T03:36:21.894Z,72.83
2022-11-15T03:37:21.882Z,69.93
2022-11-15T03:38:21.904Z,72.03
2022-11-15T03:39:21.854Z,70.58
2022-11-15T03:40:21.845Z,69.93
2022-11-15T03:41:21.836Z,71.06
2022-11-15T03:42:21.834Z,69.29
2022-11-15T03:43:21.815Z,73.32
2022-11-15T03:44:21.811Z,69.93
2022-11-15T03:45:21.793Z,71.70
2022-11-15T03:46:21.783Z,72.51
2022-11-15T03:47:21.784Z,76.05
2022-11-15T03:48:21.763Z,72.19
2022-11-15T03:49:21.749Z,67.19
2022-11-15T03:50:21.738Z,68.80
2022-11-15T03:51:21.733Z,69.45
2022-11-15T03:52:21.760Z,71.06
2022-11-15T03:53:22.713Z,68.32
2022-11-15T03:54:21.702Z,69.93
2022-11-15T03:55:21.690Z,70.90
2022-11-15T03:56:21.690Z,73.96
2022-11-15T03:57:21.683Z,71.38
2022-11-15T03:58:21.658Z,73.64
2022-11-15T03:59:21.657Z,74.93
2022-11-15T04:00:21.639Z,73.80
2022-11-15T04:01:21.662Z,72.19
2022-11-15T04:02:21.626Z,72.03
2022-11-15T04:03:21.605Z,72.03
2022-11-15T04:04:21.593Z,70.42
2022-11-15T04:05:21.585Z,68.80
2022-11-15T04:06:21.574Z,68.48
2022-11-15T04:07:21.599Z,68.48
2022-11-15T04:08:21.576Z,71.54
2022-11-15T04:09:21.547Z,72.83
2022-11-15T04:10:21.533Z,70.25
2022-11-15T04:11:21.523Z,74.12
2022-11-15T04:12:21.526Z,73.48
2022-11-15T04:13:21.498Z,72.35
2022-11-15T04:14:21.492Z,71.22
2022-11-15T04:15:21.483Z,72.03
2022-11-15T04:16:21.473Z,73.80
2022-11-15T04:17:21.474Z,72.67
2022-11-15T04:18:21.452Z,73.96
2022-11-15T04:19:21.440Z,72.67
2022-11-15T04:20:21.434Z,71.87
2022-11-15T04:21:21.437Z,71.38
2022-11-15T04:22:21.420Z,71.38
2022-11-15T04:23:21.400Z,71.87
2022-11-15T04:24:21.387Z,73.64
2022-11-15T04:25:24.066Z,72.51
2022-11-15T04:26:22.363Z,72.67
2022-11-15T04:27:21.369Z,71.38
2022-11-15T04:28:21.345Z,74.12
2022-11-15T04:29:21.339Z,72.67
2022-11-15T04:30:21.320Z,73.80
2022-11-15T04:31:21.314Z,71.06
2022-11-15T04:32:21.319Z,72.35
2022-11-15T04:33:21.295Z,74.28
2022-11-15T04:34:21.317Z,72.67
2022-11-15T04:35:21.280Z,72.03
2022-11-15T04:36:21.266Z,69.45
2022-11-15T04:37:21.266Z,68.32
2022-11-15T04:38:21.243Z,67.51
2022-11-15T04:39:21.229Z,70.90
2022-11-15T04:40:21.216Z,70.09
2022-11-15T04:41:21.209Z,70.90
2022-11-15T04:42:21.210Z,71.70
2022-11-15T04:43:21.187Z,69.61
2022-11-15T04:44:21.167Z,70.74
2022-11-15T04:45:22.167Z,70.74
2022-11-15T04:46:21.159Z,71.06
2022-11-15T04:47:21.157Z,70.58
2022-11-15T04:48:21.132Z,68.48
2022-11-15T04:49:21.122Z,70.74
2022-11-15T04:50:21.113Z,71.22
2022-11-15T04:51:21.107Z,72.67
2022-11-15T04:52:21.102Z,70.42
2022-11-15T04:53:21.079Z,68.64
2022-11-15T04:54:21.072Z,69.93
2022-11-15T04:55:21.058Z,71.38
2022-11-15T04:56:21.052Z,72.19
2022-11-15T04:57:21.044Z,69.61
2022-11-15T04:58:21.024Z,71.54
2022-11-15T04:59:21.014Z,70.25
2022-11-15T05:00:21.012Z,72.03
2022-11-15T05:01:21.019Z,68.80
2022-11-15T05:02:20.995Z,70.90
2022-11-15T05:03:20.975Z,69.29
2022-11-15T05:04:20.969Z,69.93
2022-11-15T05:05:20.956Z,72.19
2022-11-15T05:06:20.943Z,70.74
2022-11-15T05:07:21.000Z,70.74
2022-11-15T05:08:20.918Z,70.25
2022-11-15T05:09:20.910Z,69.61
2022-11-15T05:10:20.907Z,70.42
2022-11-15T05:11:20.889Z,71.54
2022-11-15T05:12:20.890Z,69.77
2022-11-15T05:13:20.865Z,69.93
2022-11-15T05:14:20.854Z,70.58
2022-11-15T05:15:20.845Z,72.35
2022-11-15T05:16:20.845Z,71.87
2022-11-15T05:17:20.831Z,71.22
2022-11-15T05:18:23.524Z,70.74
2022-11-15T05:19:21.801Z,70.58
2022-11-15T05:20:20.807Z,68.64
2022-11-15T05:21:20.800Z,68.16
2022-11-15T05:22:20.783Z,70.90
2022-11-15T05:23:20.765Z,67.19
2022-11-15T05:24:20.755Z,71.54
2022-11-15T05:25:20.742Z,67.19
2022-11-15T05:26:20.746Z,70.58
2022-11-15T05:27:20.727Z,70.25
2022-11-15T05:28:20.709Z,75.41
2022-11-15T05:29:20.702Z,69.61
2022-11-15T05:30:20.705Z,69.93
2022-11-15T05:31:20.702Z,69.93
2022-11-15T05:32:20.672Z,72.51
2022-11-15T05:33:20.659Z,72.19
2022-11-15T05:34:20.650Z,71.38
2022-11-15T05:35:20.640Z,70.90
2022-11-15T05:36:20.630Z,68.48
2022-11-15T05:37:20.640Z,68.96
2022-11-15T05:38:20.608Z,70.90
2022-11-15T05:39:20.593Z,71.87
2022-11-15T05:40:20.589Z,70.90
2022-11-15T05:41:20.594Z,68.64
2022-11-15T05:42:20.974Z,69.13
2022-11-15T05:43:20.550Z,69.45
2022-11-15T05:44:21.545Z,67.84
2022-11-15T05:45:26.496Z,71.38
2022-11-15T05:46:22.525Z,68.80
2022-11-15T05:47:20.525Z,70.58
2022-11-15T05:48:20.505Z,72.51
2022-11-15T05:49:20.491Z,69.77
2022-11-15T05:50:20.479Z,67.84
2022-11-15T05:51:20.478Z,69.13
2022-11-15T05:52:20.478Z,69.93
2022-11-15T05:53:20.463Z,68.48
2022-11-15T05:54:52.367Z,68.96
2022-11-15T05:55:20.436Z,69.61
2022-11-15T05:56:20.424Z,70.25
2022-11-15T05:57:20.424Z,70.90
2022-11-15T05:58:20.449Z,70.58
2022-11-15T05:59:20.390Z,68.96
2022-11-15T06:00:20.376Z,70.42
2022-11-15T06:01:20.386Z,68.00
2022-11-15T06:02:20.424Z,70.09
2022-11-15T06:03:20.368Z,70.90
2022-11-15T06:04:20.341Z,70.74
2022-11-15T06:05:20.339Z,70.42
2022-11-15T06:06:20.322Z,68.48
2022-11-15T06:07:20.467Z,70.74
2022-11-15T06:08:20.300Z,71.22
2022-11-15T06:09:20.301Z,69.77
2022-11-15T06:10:20.277Z,71.38
2022-11-15T06:11:20.269Z,71.54
2022-11-15T06:12:20.271Z,70.42
2022-11-15T06:13:20.245Z,68.80
2022-11-15T06:14:20.241Z,72.67
2022-11-15T06:15:20.268Z,69.93
2022-11-15T06:16:20.216Z,71.38
2022-11-15T06:17:20.217Z,70.25
2022-11-15T06:18:20.193Z,72.51
2022-11-15T06:19:20.180Z,73.32
2022-11-15T06:20:20.173Z,72.19
2022-11-15T06:21:20.166Z,72.51
2022-11-15T06:22:20.167Z,72.67
2022-11-15T06:23:20.142Z,72.03
2022-11-15T06:24:20.134Z,72.51
2022-11-15T06:25:20.121Z,73.15
2022-11-15T06:26:20.117Z,73.80
2022-11-15T06:27:20.116Z,71.06
2022-11-15T06:28:20.091Z,70.90
2022-11-15T06:29:20.076Z,71.54
2022-11-15T06:30:20.076Z,72.51
2022-11-15T06:31:20.055Z,73.32
2022-11-15T06:32:20.056Z,70.25
2022-11-15T06:33:20.039Z,71.38
2022-11-15T06:34:20.023Z,69.29
2022-11-15T06:35:20.016Z,71.54
2022-11-15T06:36:20.003Z,72.51
2022-11-15T06:37:20.003Z,70.25
2022-11-15T06:38:19.979Z,69.45
2022-11-15T06:39:19.970Z,72.35
2022-11-15T06:40:19.963Z,70.74
2022-11-15T06:41:19.949Z,72.67
2022-11-15T06:42:19.947Z,72.83
2022-11-15T06:43:19.939Z,73.32
2022-11-15T06:44:19.921Z,71.54
2022-11-15T06:45:19.906Z,71.38
2022-11-15T06:46:19.900Z,71.54
2022-11-15T06:47:19.898Z,71.70
2022-11-15T06:48:19.880Z,73.80
2022-11-15T06:49:19.903Z,71.87
2022-11-15T06:50:19.858Z,70.42
2022-11-15T06:51:19.849Z,71.70
2022-11-15T06:52:19.849Z,71.87
2022-11-15T06:53:19.824Z,71.70
2022-11-15T06:54:19.813Z,72.03
2022-11-15T06:55:19.807Z,70.58
2022-11-15T06:56:19.791Z,72.67
2022-11-15T06:57:19.801Z,71.87
2022-11-15T06:58:19.778Z,70.90
2022-11-15T06:59:19.769Z,69.93
2022-11-15T07:00:19.755Z,70.09
2022-11-15T07:01:19.848Z,72.03
2022-11-15T07:02:19.745Z,71.87
2022-11-15T07:03:19.722Z,72.03
2022-11-15T07:04:19.709Z,72.03
2022-11-15T07:05:19.701Z,71.87
2022-11-15T07:06:19.695Z,69.93
2022-11-15T07:07:19.753Z,72.19
2022-11-15T07:08:19.673Z,70.58
2022-11-15T07:09:19.660Z,71.70
2022-11-15T07:10:19.653Z,73.48
2022-11-15T07:11:19.651Z,69.77
2022-11-15T07:12:19.653Z,69.77
2022-11-15T07:13:19.627Z,70.90
2022-11-15T07:14:19.607Z,72.19
2022-11-15T07:15:19.603Z,71.38
2022-11-15T07:16:19.587Z,69.45
2022-11-15T07:17:19.590Z,69.61
2022-11-15T07:18:19.566Z,69.93
2022-11-15T07:19:19.554Z,70.90
2022-11-15T07:20:19.545Z,70.25
2022-11-15T07:21:22.377Z,68.48
2022-11-15T07:22:20.534Z,72.35
2022-11-15T07:23:19.515Z,70.25
2022-11-15T07:24:19.503Z,71.38
2022-11-15T07:25:19.495Z,70.25
2022-11-15T07:26:19.485Z,70.09
2022-11-15T07:27:19.480Z,72.51
2022-11-15T07:28:19.464Z,70.74
2022-11-15T07:29:19.455Z,69.61
2022-11-15T07:30:19.454Z,71.54
2022-11-15T07:31:19.431Z,72.03
2022-11-15T07:32:19.433Z,69.45
2022-11-15T07:33:19.414Z,71.22
2022-11-15T07:34:19.419Z,72.03
2022-11-15T07:35:19.396Z,70.42
2022-11-15T07:36:19.383Z,70.90
2022-11-15T07:37:19.378Z,69.93
2022-11-15T07:38:19.363Z,65.90
2022-11-15T07:39:19.354Z,71.70
2022-11-15T07:40:19.351Z,71.22
2022-11-15T07:41:19.329Z,72.35
2022-11-15T07:42:19.329Z,70.42
2022-11-15T07:43:20.307Z,71.38
2022-11-15T07:44:19.300Z,70.74
2022-11-15T07:45:19.286Z,71.22
2022-11-15T07:46:19.274Z,72.67
2022-11-15T07:47:19.279Z,72.19
2022-11-15T07:48:19.258Z,72.19
2022-11-15T07:49:19.259Z,71.87
2022-11-15T07:50:19.239Z,70.90
2022-11-15T07:51:19.220Z,73.32
2022-11-15T07:52:19.212Z,70.42
2022-11-15T07:53:19.218Z,71.87
2022-11-15T07:54:19.204Z,72.67
2022-11-15T07:55:19.182Z,71.22
2022-11-15T07:56:19.168Z,69.61
2022-11-15T07:57:19.156Z,69.61
2022-11-15T07:58:19.151Z,69.45
2022-11-15T07:59:19.153Z,68.96
2022-11-15T08:00:19.123Z,66.87
2022-11-15T08:01:19.284Z,66.71
2022-11-15T08:02:19.253Z,66.87
2022-11-15T08:03:19.098Z,67.84
2022-11-15T08:04:19.093Z,67.84
2022-11-15T08:05:19.073Z,66.39
2022-11-15T08:06:19.065Z,67.84
2022-11-15T08:07:19.191Z,68.80
2022-11-15T08:08:19.042Z,69.29
2022-11-15T08:09:19.048Z,68.32
2022-11-15T08:10:19.026Z,67.84
2022-11-15T08:11:19.013Z,68.96
2022-11-15T08:12:19.018Z,68.96
2022-11-15T08:13:19.160Z,66.87
2022-11-15T08:14:19.004Z,66.06
2022-11-15T08:15:18.974Z,68.96
2022-11-15T08:16:18.968Z,64.61
2022-11-15T08:17:18.957Z,64.45
2022-11-15T08:18:18.943Z,67.35
2022-11-15T08:19:18.945Z,65.90
2022-11-15T08:20:18.944Z,64.61
2022-11-15T08:21:18.913Z,64.94
2022-11-15T08:22:18.902Z,66.87
2022-11-15T08:23:18.890Z,63.49
2022-11-15T08:24:18.896Z,64.13
2022-11-15T08:25:18.869Z,67.35
2022-11-15T08:26:18.866Z,67.84
2022-11-15T08:27:18.885Z,67.68
2022-11-15T08:28:18.838Z,65.10
2022-11-15T08:29:18.850Z,65.90
2022-11-15T08:30:18.830Z,64.13
2022-11-15T08:31:18.813Z,63.16
2022-11-15T08:32:18.806Z,67.19
2022-11-15T08:33:18.806Z,66.23
2022-11-15T08:34:18.830Z,65.42
2022-11-15T08:35:18.773Z,63.65
2022-11-15T08:36:18.767Z,63.00
2022-11-15T08:37:18.750Z,63.65
2022-11-15T08:38:18.746Z,65.74
2022-11-15T08:39:18.751Z,63.65
2022-11-15T08:40:18.724Z,65.42
2022-11-15T08:41:18.714Z,65.90
2022-11-15T08:42:20.132Z,64.78
2022-11-15T08:43:19.696Z,65.90
2022-11-15T08:44:18.706Z,63.81
2022-11-15T08:45:18.678Z,65.10
2022-11-15T08:46:18.664Z,64.45
2022-11-15T08:47:18.653Z,64.13
2022-11-15T08:48:18.644Z,65.58
2022-11-15T08:49:18.632Z,63.81
2022-11-15T08:50:18.662Z,63.00
2022-11-15T08:51:18.615Z,63.16
2022-11-15T08:52:18.604Z,64.29
2022-11-15T08:53:18.593Z,66.39
2022-11-15T08:54:18.591Z,65.90
2022-11-15T08:55:18.583Z,63.97
2022-11-15T08:56:18.570Z,65.58
2022-11-15T08:57:18.554Z,63.65
2022-11-15T08:58:18.538Z,64.61
2022-11-15T08:59:18.530Z,67.51
2022-11-15T09:00:18.535Z,66.23
2022-11-15T09:01:18.949Z,65.26
2022-11-15T09:02:19.498Z,64.29
2022-11-15T09:03:18.494Z,65.90
2022-11-15T09:04:18.482Z,65.90
2022-11-15T09:05:18.486Z,65.10
2022-11-15T09:06:18.463Z,64.45
2022-11-15T09:07:18.516Z,64.61
2022-11-15T09:08:46.075Z,64.61
2022-11-15T09:09:20.419Z,64.78
2022-11-15T09:10:19.428Z,66.06
2022-11-15T09:11:18.406Z,64.61
2022-11-15T09:12:18.394Z,65.90
2022-11-15T09:13:18.395Z,65.90
2022-11-15T09:14:18.398Z,64.13
2022-11-15T09:15:18.383Z,63.81
2022-11-15T09:16:18.358Z,64.61
2022-11-15T09:17:24.264Z,68.00
2022-11-15T09:18:22.329Z,65.10
2022-11-15T09:19:18.325Z,63.81
2022-11-15T09:20:18.323Z,62.84
2022-11-15T09:21:18.304Z,64.45
2022-11-15T09:22:18.297Z,63.81
2022-11-15T09:23:18.285Z,64.13
2022-11-15T09:24:18.271Z,66.06
2022-11-15T09:25:18.271Z,63.65
2022-11-15T09:26:18.253Z,63.16
2022-11-15T09:27:18.245Z,63.49
2022-11-15T09:28:18.231Z,63.81
2022-11-15T09:29:18.220Z,63.65
2022-11-15T09:30:18.222Z,64.78
2022-11-15T09:31:21.036Z,62.84
2022-11-15T09:32:19.186Z,64.13
2022-11-15T09:33:18.177Z,63.33
2022-11-15T09:34:18.163Z,63.65
2022-11-15T09:35:18.161Z,64.29
2022-11-15T09:36:19.148Z,63.65
2022-11-15T09:37:18.138Z,63.65
2022-11-15T09:38:18.131Z,62.04
2022-11-15T09:39:18.112Z,63.16
2022-11-15T09:40:18.111Z,63.81
2022-11-15T09:41:18.091Z,62.68
2022-11-15T09:42:18.085Z,62.68
2022-11-15T09:43:18.074Z,63.00
2022-11-15T09:44:25.112Z,63.16
2022-11-15T09:45:20.058Z,62.68
2022-11-15T09:46:18.038Z,63.81
2022-11-15T09:47:18.049Z,62.84
2022-11-15T09:48:18.015Z,64.13
2022-11-15T09:49:18.010Z,62.84
2022-11-15T09:50:18.009Z,63.00
2022-11-15T09:51:17.988Z,66.06
2022-11-15T09:52:17.982Z,62.68
2022-11-15T09:53:17.965Z,63.00
2022-11-15T09:54:46.050Z,63.65
2022-11-15T09:55:19.955Z,65.58
2022-11-15T09:56:17.931Z,63.81
2022-11-15T09:57:17.924Z,64.13
2022-11-15T09:58:17.916Z,64.45
2022-11-15T09:59:17.904Z,65.10
2022-11-15T10:01:19.942Z,64.13
2022-11-15T10:02:17.879Z,66.55
2022-11-15T10:03:17.864Z,66.23
2022-11-15T10:04:17.851Z,68.32
2022-11-15T10:05:17.850Z,66.87
2022-11-15T10:06:17.827Z,68.32
2022-11-15T10:07:17.873Z,67.84
2022-11-15T10:08:17.810Z,66.71
2022-11-15T10:09:22.551Z,67.51
2022-11-15T10:10:19.798Z,68.48
2022-11-15T10:12:19.762Z,70.74
2022-11-15T10:13:17.760Z,67.84
2022-11-15T10:14:17.740Z,67.19
2022-11-15T10:15:17.764Z,71.06
2022-11-15T10:16:17.714Z,66.71
2022-11-15T10:17:17.707Z,68.48
2022-11-15T10:18:17.694Z,68.80
2022-11-15T10:19:17.683Z,69.93
2022-11-15T10:20:17.713Z,68.48
2022-11-15T10:21:17.662Z,67.35
2022-11-15T10:22:17.652Z,68.48
2022-11-15T10:23:17.644Z,68.00
2022-11-15T10:24:17.630Z,69.45
2022-11-15T10:25:17.655Z,67.19
2022-11-15T10:26:17.607Z,67.35
2022-11-15T10:27:17.604Z,71.70
2022-11-15T10:28:17.596Z,68.16
2022-11-15T10:29:17.578Z,69.13
2022-11-15T10:30:17.609Z,67.68
2022-11-15T10:31:17.559Z,68.32
2022-11-15T10:32:17.537Z,67.68
2022-11-15T10:33:18.538Z,69.77
2022-11-15T10:34:17.532Z,69.29
2022-11-15T10:35:17.558Z,67.03
2022-11-15T10:36:17.501Z,68.80
2022-11-15T10:37:17.492Z,66.87
2022-11-15T10:38:17.497Z,67.84
2022-11-15T10:39:17.478Z,68.00
2022-11-15T10:40:17.539Z,68.48
2022-11-15T10:41:17.465Z,67.68
2022-11-15T10:42:18.045Z,68.64
2022-11-15T10:43:18.429Z,65.10
2022-11-15T10:44:17.423Z,66.39
2022-11-15T10:45:17.421Z,67.35
2022-11-15T10:46:44.635Z,66.71
2022-11-15T10:47:19.393Z,68.48
2022-11-15T10:48:17.384Z,67.35
2022-11-15T10:49:17.366Z,67.19
2022-11-15T10:50:17.388Z,68.48
2022-11-15T10:51:17.360Z,67.03
2022-11-15T10:52:17.347Z,68.48
2022-11-15T10:53:17.333Z,66.39
2022-11-15T10:54:20.992Z,67.84
2022-11-15T10:55:18.307Z,67.35
2022-11-15T10:56:18.296Z,67.35
2022-11-15T10:57:17.297Z,66.87
2022-11-15T10:58:17.277Z,67.68
2022-11-15T10:59:17.278Z,69.29
2022-11-15T11:00:17.266Z,67.84
2022-11-15T11:01:17.278Z,68.32
2022-11-15T11:02:17.236Z,67.51
2022-11-15T11:03:17.232Z,68.64
2022-11-15T11:04:17.215Z,67.03
2022-11-15T11:05:17.215Z,67.84
2022-11-15T11:06:17.353Z,67.03
2022-11-15T11:07:17.209Z,67.84
2022-11-15T11:08:17.179Z,66.06
2022-11-15T11:09:17.176Z,68.96
2022-11-15T11:10:36.551Z,65.42
2022-11-15T11:11:19.150Z,70.25
2022-11-15T11:12:17.140Z,68.64
2022-11-15T11:13:17.125Z,68.96
2022-11-15T11:14:17.112Z,67.19
2022-11-15T11:15:17.111Z,69.45
2022-11-15T11:16:17.100Z,67.68
2022-11-15T11:17:17.081Z,69.93
2022-11-15T11:18:17.071Z,71.22
2022-11-15T11:19:17.058Z,68.16
2022-11-15T11:20:17.063Z,67.35
2022-11-15T11:21:17.041Z,69.13
2022-11-15T11:22:17.028Z,67.68
2022-11-15T11:23:17.021Z,67.35
2022-11-15T11:24:17.008Z,70.09
2022-11-15T11:25:17.020Z,67.35
2022-11-15T11:26:17.004Z,66.71
2022-11-15T11:27:16.976Z,67.84
2022-11-15T11:28:16.969Z,69.61
2022-11-15T11:29:16.958Z,67.84
2022-11-15T11:30:16.958Z,67.84
2022-11-15T11:31:16.935Z,67.03
2022-11-15T11:32:16.926Z,69.29
2022-11-15T11:33:16.916Z,67.35
2022-11-15T11:34:16.903Z,66.87
2022-11-15T11:35:16.941Z,67.68
2022-11-15T11:36:16.894Z,68.96
2022-11-15T11:37:16.875Z,67.19
2022-11-15T11:38:16.861Z,66.39
2022-11-15T11:39:16.853Z,69.77
2022-11-15T11:40:16.843Z,70.25
2022-11-15T11:41:16.887Z,67.03
2022-11-15T11:42:16.822Z,68.96
2022-11-15T11:43:16.810Z,68.00
2022-11-15T11:44:16.812Z,68.96
2022-11-15T11:45:16.797Z,68.48
2022-11-15T11:46:16.784Z,68.16
2022-11-15T11:47:16.775Z,67.51
2022-11-15T11:48:16.762Z,71.70
2022-11-15T11:49:16.747Z,66.23
2022-11-15T11:50:16.975Z,67.03
2022-11-15T11:51:16.740Z,67.84
2022-11-15T11:52:16.713Z,69.93
2022-11-15T11:53:16.712Z,69.61
2022-11-15T11:54:17.657Z,65.74
2022-11-15T11:55:16.703Z,68.00
2022-11-15T11:56:16.679Z,65.42
2022-11-15T11:57:16.664Z,67.19
2022-11-15T11:58:16.661Z,70.58
2022-11-15T11:59:16.639Z,70.09
2022-11-15T12:00:16.644Z,69.29
2022-11-15T12:01:16.633Z,68.96
2022-11-15T12:02:16.720Z,69.61
2022-11-15T12:03:16.640Z,66.55
2022-11-15T12:04:16.589Z,68.32
2022-11-15T12:05:16.576Z,69.61
2022-11-15T12:06:16.586Z,69.13
2022-11-15T12:07:16.572Z,67.19
2022-11-15T12:08:16.549Z,67.84
2022-11-15T12:09:16.542Z,68.96
2022-11-15T12:10:16.526Z,68.96
2022-11-15T12:11:16.533Z,67.03
2022-11-15T12:12:16.554Z,67.84
2022-11-15T12:13:16.498Z,67.51
2022-11-15T12:14:17.490Z,69.93
2022-11-15T12:15:16.479Z,68.64
2022-11-15T12:16:16.482Z,68.00
2022-11-15T12:17:16.486Z,67.35
2022-11-15T12:18:16.452Z,66.87
2022-11-15T12:19:16.439Z,67.19
2022-11-15T12:20:16.428Z,68.64
2022-11-15T12:21:16.434Z,67.35
2022-11-15T12:22:16.410Z,68.48
2022-11-15T12:23:16.398Z,68.16
2022-11-15T12:24:16.390Z,69.93
2022-11-15T12:25:16.378Z,68.96
2022-11-15T12:26:16.377Z,68.00
2022-11-15T12:27:20.608Z,69.29
2022-11-15T12:28:17.349Z,67.19
2022-11-15T12:29:16.336Z,67.51
2022-11-15T12:30:16.329Z,69.77
2022-11-15T12:31:16.431Z,68.16
2022-11-15T12:32:16.308Z,68.00
2022-11-15T12:33:16.296Z,68.32
2022-11-15T12:34:16.288Z,66.87
2022-11-15T12:35:16.271Z,65.42
2022-11-15T12:36:16.277Z,69.61
2022-11-15T12:37:16.254Z,70.09
2022-11-15T12:38:16.239Z,68.96
2022-11-15T12:39:16.244Z,67.68
2022-11-15T12:40:16.243Z,69.29
2022-11-15T12:41:16.297Z,66.87
2022-11-15T12:42:16.208Z,68.32
2022-11-15T12:43:16.197Z,67.68
2022-11-15T12:44:16.183Z,68.96
2022-11-15T12:45:16.240Z,68.64
2022-11-15T12:46:16.175Z,67.35
2022-11-15T12:47:19.443Z,68.48
2022-11-15T12:48:18.144Z,69.77
2022-11-15T12:49:16.135Z,67.35
2022-11-15T12:50:16.124Z,68.00
2022-11-15T12:51:16.134Z,68.48
2022-11-15T12:52:16.109Z,69.61
2022-11-15T12:53:16.102Z,68.32
2022-11-15T12:54:16.079Z,70.90